< < Back
Terminal Aerodrome Forecast


Current Version              Previous Versions:   1  2  3  4  5  6  7  8  9  

Terminal Aerodrome Forecast

182
FTUS42 KJAX 241700
TAFGNV
TAF
KGNV 241733Z 2418/2518 03005KT P6SM FEW250=

Latest METAR

535
SAUS70 KWBC 251900 RRD
MTRGNV
METAR KGNV 251853Z 34008KT 290V030 10SM CLR 24/09 A2997 RMK AO2 SLP147
T02440094


USA.gov is the U.S. government's official web portal to all federal, state and local government web resources and services.